Time;durP1;ratioP1;P1;durP2;ratioP2;P2;SDS_P1;SDS_P2;PMS_P1;PMS_P2;Temp;Humidity;BMP_temperature;BMP_pressure;BME280_temperature;BME280_humidity;BME280_pressure;Samples;Min_cycle;Max_cycle;Signal;HPM_P1;HPM_P2
2024/01/09 00:01:05;;;;;;;5.10;4.30;;;21.00;57.60;;;;;;5059405;28;20457;-64
2024/01/09 00:03:33;;;;;;;4.13;3.83;;;21.00;57.70;;;;;;5061487;28;20947;-63
2024/01/09 00:06:02;;;;;;;4.07;3.67;;;21.00;57.70;;;;;;5057599;28;20522;-64
2024/01/09 00:08:30;;;;;;;7.00;4.07;;;21.00;57.70;;;;;;5052122;28;20480;-65
2024/01/09 00:11:00;;;;;;;4.90;4.50;;;21.00;57.70;;;;;;5058826;28;20533;-63
2024/01/09 00:13:30;;;;;;;4.47;4.07;;;21.00;57.70;;;;;;5065012;28;20490;-64
2024/01/09 00:15:58;;;;;;;4.80;4.27;;;21.00;57.70;;;;;;5059744;28;20518;-64
2024/01/09 00:18:26;;;;;;;4.80;3.90;;;21.00;57.70;;;;;;5062512;28;20506;-64
2024/01/09 00:20:55;;;;;;;4.50;4.10;;;20.90;57.80;;;;;;5064459;28;20451;-64
2024/01/09 00:23:23;;;;;;;5.73;5.23;;;21.00;57.70;;;;;;5042524;28;20558;-64
2024/01/09 00:25:51;;;;;;;4.73;4.00;;;20.90;57.80;;;;;;5057755;28;20437;-64
2024/01/09 00:28:23;;;;;;;5.73;3.90;;;20.90;57.80;;;;;;5034341;28;20475;-66
2024/01/09 00:30:53;;;;;;;5.30;4.57;;;20.90;57.80;;;;;;5063477;28;20445;-64
2024/01/09 00:33:22;;;;;;;3.57;3.27;;;20.90;57.80;;;;;;5060389;28;20459;-64
2024/01/09 00:35:50;;;;;;;4.17;3.77;;;20.90;57.80;;;;;;5061269;28;20473;-65
2024/01/09 00:38:19;;;;;;;4.00;3.70;;;20.90;57.80;;;;;;5057969;28;20477;-64
2024/01/09 00:40:47;;;;;;;5.10;4.43;;;20.90;57.80;;;;;;5052938;28;20455;-65
2024/01/09 00:43:15;;;;;;;4.57;4.07;;;20.90;57.70;;;;;;5061463;28;20511;-64
2024/01/09 00:45:44;;;;;;;4.10;3.53;;;20.90;57.70;;;;;;5062219;28;20447;-64
2024/01/09 00:48:16;;;;;;;4.93;4.27;;;20.90;57.70;;;;;;5062931;28;20439;-64
2024/01/09 00:50:45;;;;;;;4.47;4.07;;;20.90;57.70;;;;;;5061668;28;20428;-64
2024/01/09 00:53:14;;;;;;;4.93;4.40;;;20.90;57.60;;;;;;5062751;28;20461;-64
2024/01/09 00:55:42;;;;;;;4.40;4.07;;;20.90;57.70;;;;;;5057119;28;20481;-64
2024/01/09 00:58:10;;;;;;;4.50;3.67;;;20.90;57.60;;;;;;5059353;28;20458;-66
2024/01/09 01:00:38;;;;;;;4.93;4.53;;;20.90;57.60;;;;;;5054801;28;20452;-64
2024/01/09 01:03:06;;;;;;;4.20;3.80;;;20.80;57.60;;;;;;5047872;28;20470;-63
2024/01/09 01:05:36;;;;;;;5.13;4.63;;;20.80;57.60;;;;;;5045418;28;20461;-65
2024/01/09 01:08:05;;;;;;;4.10;3.80;;;20.80;57.60;;;;;;5050345;28;20488;-65
2024/01/09 01:10:33;;;;;;;4.83;4.13;;;20.80;57.60;;;;;;5035540;28;20448;-64
2024/01/09 01:13:02;;;;;;;4.70;4.30;;;20.80;57.60;;;;;;5043582;28;20694;-67
2024/01/09 01:15:30;;;;;;;4.50;4.10;;;20.80;57.60;;;;;;5044531;28;20488;-65
2024/01/09 01:17:58;;;;;;;4.43;4.03;;;20.80;57.60;;;;;;5050593;28;20451;-63
2024/01/09 01:20:26;;;;;;;6.47;4.53;;;20.70;57.60;;;;;;5050271;28;20473;-63
2024/01/09 01:22:56;;;;;;;5.20;3.97;;;20.70;57.60;;;;;;5034052;28;20507;-63
2024/01/09 01:25:27;;;;;;;5.50;4.20;;;20.70;57.60;;;;;;5046518;28;20447;-65
2024/01/09 01:27:55;;;;;;;5.17;4.10;;;20.70;57.70;;;;;;5056536;28;20458;-63
2024/01/09 01:30:23;;;;;;;4.60;4.20;;;20.70;57.70;;;;;;5048138;28;20466;-63
2024/01/09 01:32:51;;;;;;;4.40;4.00;;;20.70;57.70;;;;;;5046257;28;20498;-65
2024/01/09 01:35:20;;;;;;;4.00;3.43;;;20.60;57.70;;;;;;5040529;28;21426;-64
2024/01/09 01:37:48;;;;;;;4.87;4.47;;;20.60;57.70;;;;;;5048908;28;20542;-63
2024/01/09 01:40:18;;;;;;;3.90;3.60;;;20.60;57.70;;;;;;5037658;28;20935;-63
2024/01/09 01:42:46;;;;;;;5.53;3.77;;;20.60;57.70;;;;;;5044730;28;20943;-63
2024/01/09 01:45:16;;;;;;;5.07;4.57;;;20.60;57.70;;;;;;5047957;28;20488;-63
2024/01/09 01:47:46;;;;;;;4.33;3.93;;;20.60;57.60;;;;;;5047605;28;20455;-64
2024/01/09 01:50:16;;;;;;;4.67;4.27;;;20.60;57.70;;;;;;5048901;28;20456;-65
2024/01/09 01:52:47;;;;;;;4.03;3.70;;;20.60;57.60;;;;;;5042563;28;20455;-63
2024/01/09 01:55:19;;;;;;;3.80;3.50;;;20.60;57.60;;;;;;5043007;28;21028;-65
2024/01/09 01:57:50;;;;;;;4.80;4.40;;;20.50;57.70;;;;;;5035302;28;20432;-64
2024/01/09 02:00:21;;;;;;;4.37;4.07;;;20.50;57.60;;;;;;5054879;28;20919;-63
2024/01/09 02:02:51;;;;;;;3.73;3.43;;;20.50;57.60;;;;;;5059420;28;20533;-63
2024/01/09 02:05:23;;;;;;;4.63;4.23;;;20.50;57.60;;;;;;5062595;28;20976;-63
2024/01/09 02:07:54;;;;;;;4.50;4.10;;;20.50;57.60;;;;;;5053789;28;20590;-65
2024/01/09 02:10:26;;;;;;;5.93;4.47;;;20.50;57.60;;;;;;5059267;28;20444;-65
2024/01/09 02:12:54;;;;;;;4.43;4.03;;;20.50;57.60;;;;;;5042353;28;20460;-63
2024/01/09 02:15:23;;;;;;;4.30;3.90;;;20.50;57.60;;;;;;5044253;28;20974;-63
2024/01/09 02:17:51;;;;;;;4.50;4.10;;;20.50;57.60;;;;;;5056910;28;20474;-63
2024/01/09 02:20:23;;;;;;;5.33;4.20;;;20.50;57.50;;;;;;5044616;28;20462;-63
2024/01/09 02:22:51;;;;;;;5.50;4.40;;;20.50;57.60;;;;;;5050585;28;20900;-64
2024/01/09 02:25:19;;;;;;;4.60;4.13;;;20.50;57.50;;;;;;5043454;28;20509;-63
2024/01/09 02:28:00;;;;;;;5.03;4.50;;;20.50;57.50;;;;;;5049145;28;20833;-63
2024/01/09 02:30:30;;;;;;;4.87;4.47;;;20.50;57.50;;;;;;5033629;28;20941;-63
2024/01/09 02:32:59;;;;;;;4.40;4.10;;;20.40;57.50;;;;;;5050380;28;20456;-63
2024/01/09 02:35:27;;;;;;;6.00;5.07;;;20.40;57.50;;;;;;5045534;28;20468;-63
2024/01/09 02:37:56;;;;;;;5.17;4.67;;;20.40;57.50;;;;;;5052073;28;20490;-63
2024/01/09 02:40:24;;;;;;;5.33;4.37;;;20.40;57.50;;;;;;5053338;28;20421;-66
2024/01/09 02:42:52;;;;;;;4.97;4.50;;;20.40;57.40;;;;;;5040341;28;21063;-64
2024/01/09 02:45:21;;;;;;;5.43;4.30;;;20.40;57.50;;;;;;5054826;28;20432;-63
2024/01/09 02:47:50;;;;;;;5.30;4.80;;;20.40;57.40;;;;;;5053300;28;20442;-64
2024/01/09 02:50:20;;;;;;;4.30;3.90;;;20.40;57.40;;;;;;5051060;28;20455;-63
2024/01/09 02:52:48;;;;;;;4.73;4.23;;;20.40;57.40;;;;;;5053289;28;20794;-63
2024/01/09 02:55:16;;;;;;;4.27;3.87;;;20.40;57.40;;;;;;5047107;28;20471;-64
2024/01/09 02:57:44;;;;;;;5.13;4.63;;;20.30;57.40;;;;;;5050251;28;20451;-64
2024/01/09 03:00:13;;;;;;;4.93;4.17;;;20.40;57.30;;;;;;5050399;28;20455;-64
2024/01/09 03:02:41;;;;;;;4.87;4.40;;;20.30;57.30;;;;;;5049504;28;20812;-65
2024/01/09 03:05:11;;;;;;;4.57;4.17;;;20.30;57.30;;;;;;5051427;28;20838;-65
2024/01/09 03:07:39;;;;;;;4.97;4.47;;;20.30;57.20;;;;;;5060594;28;20487;-63
2024/01/09 03:10:10;;;;;;;4.63;4.23;;;20.30;57.30;;;;;;5052750;28;20938;-63
2024/01/09 03:12:38;;;;;;;5.20;4.80;;;20.30;57.30;;;;;;5052324;28;20448;-63
2024/01/09 03:15:07;;;;;;;5.40;4.90;;;20.30;57.20;;;;;;5039233;28;20461;-63
2024/01/09 03:17:35;;;;;;;5.47;4.97;;;20.30;57.20;;;;;;5053295;28;20447;-64
2024/01/09 03:20:04;;;;;;;4.53;4.13;;;20.30;57.30;;;;;;5052775;28;20443;-63
2024/01/09 03:22:34;;;;;;;4.47;4.03;;;20.20;57.30;;;;;;5053048;28;20443;-64
2024/01/09 03:25:02;;;;;;;4.77;4.30;;;20.20;57.20;;;;;;5044555;28;20495;-64
2024/01/09 03:27:30;;;;;;;5.77;5.33;;;20.20;57.20;;;;;;5047296;28;20460;-64
2024/01/09 03:29:59;;;;;;;4.40;4.00;;;20.20;57.20;;;;;;5051992;28;20501;-63
2024/01/09 03:32:27;;;;;;;4.77;4.47;;;20.20;57.30;;;;;;5053298;28;20497;-64
2024/01/09 03:34:55;;;;;;;5.00;4.50;;;20.20;57.20;;;;;;5053128;28;20956;-64
2024/01/09 03:37:23;;;;;;;5.90;4.17;;;20.20;57.20;;;;;;5053566;28;20459;-63
2024/01/09 03:39:53;;;;;;;5.27;4.77;;;20.20;57.20;;;;;;5052567;28;20462;-63
2024/01/09 03:42:21;;;;;;;5.17;4.73;;;20.20;57.20;;;;;;5044989;28;21272;-63
2024/01/09 03:44:49;;;;;;;5.50;5.00;;;20.10;57.20;;;;;;5052891;28;20447;-63
2024/01/09 03:47:17;;;;;;;5.00;4.50;;;20.10;57.20;;;;;;5052361;28;20442;-63
2024/01/09 03:49:46;;;;;;;5.10;4.60;;;20.10;57.10;;;;;;5052901;28;20446;-64
2024/01/09 03:52:14;;;;;;;4.30;3.90;;;20.10;57.10;;;;;;5048004;28;20465;-63
2024/01/09 03:54:42;;;;;;;4.97;4.57;;;20.10;57.20;;;;;;5032894;28;20465;-65
2024/01/09 03:57:12;;;;;;;4.80;4.40;;;20.10;57.10;;;;;;5058189;28;20529;-64
2024/01/09 03:59:42;;;;;;;5.53;4.57;;;20.10;57.10;;;;;;5050796;28;20573;-63
2024/01/09 04:02:10;;;;;;;5.00;4.50;;;20.10;57.10;;;;;;5053380;28;20435;-63
2024/01/09 04:04:39;;;;;;;5.10;4.50;;;20.10;57.10;;;;;;5052223;28;20466;-63
2024/01/09 04:07:07;;;;;;;5.37;4.83;;;20.00;57.00;;;;;;5052543;28;20934;-64
2024/01/09 04:09:35;;;;;;;6.40;5.43;;;20.00;57.00;;;;;;5052772;28;20474;-63
2024/01/09 04:12:04;;;;;;;5.10;4.60;;;20.00;57.10;;;;;;5051879;28;20446;-63
2024/01/09 04:14:34;;;;;;;5.33;4.93;;;20.00;57.00;;;;;;5042746;28;20465;-65
2024/01/09 04:17:05;;;;;;;5.20;4.60;;;20.00;57.00;;;;;;5053159;28;20467;-63
2024/01/09 04:19:33;;;;;;;5.80;5.20;;;20.00;57.10;;;;;;5050185;28;20463;-64
2024/01/09 04:22:01;;;;;;;4.80;4.30;;;20.00;57.10;;;;;;5045379;28;20997;-64
2024/01/09 04:24:30;;;;;;;5.13;4.47;;;20.00;57.10;;;;;;5051262;28;20451;-63
2024/01/09 04:26:58;;;;;;;4.70;4.20;;;20.00;57.10;;;;;;5045458;28;20462;-63
2024/01/09 04:29:26;;;;;;;4.20;3.90;;;20.00;57.00;;;;;;5051040;28;20497;-64
2024/01/09 04:31:56;;;;;;;5.03;4.63;;;20.00;57.00;;;;;;5050532;28;20462;-66
2024/01/09 04:34:24;;;;;;;4.73;4.33;;;20.00;57.00;;;;;;5050888;28;20444;-63
2024/01/09 04:36:53;;;;;;;4.20;3.90;;;19.90;57.00;;;;;;5051827;28;20873;-64
2024/01/09 04:39:21;;;;;;;5.07;4.67;;;19.90;57.00;;;;;;5051906;28;20419;-64
2024/01/09 04:41:49;;;;;;;5.17;4.77;;;19.90;57.00;;;;;;5051512;28;20443;-63
2024/01/09 04:44:17;;;;;;;4.97;4.30;;;19.90;56.90;;;;;;5044523;28;20477;-63
2024/01/09 04:46:46;;;;;;;5.17;4.27;;;19.90;56.90;;;;;;5055788;28;20456;-64
2024/01/09 04:49:15;;;;;;;5.90;5.40;;;19.90;56.90;;;;;;5053646;28;20439;-63
2024/01/09 04:51:43;;;;;;;4.87;4.47;;;19.90;56.90;;;;;;5045643;28;20455;-63
2024/01/09 04:54:12;;;;;;;5.37;4.87;;;19.90;56.90;;;;;;5051348;28;20431;-64
2024/01/09 04:56:40;;;;;;;5.30;4.90;;;19.90;56.80;;;;;;5051092;28;20463;-63
2024/01/09 04:59:08;;;;;;;5.80;5.30;;;19.90;57.00;;;;;;5051937;28;20530;-63
2024/01/09 05:01:36;;;;;;;5.60;5.10;;;19.90;56.90;;;;;;5053243;28;20934;-63
2024/01/09 05:04:05;;;;;;;5.70;5.20;;;19.90;56.70;;;;;;5049267;28;20470;-65
2024/01/09 05:06:38;;;;;;;4.57;4.20;;;19.90;56.60;;;;;;5050818;28;20506;-63
2024/01/09 05:09:06;;;;;;;5.80;5.30;;;19.90;56.50;;;;;;5044849;28;20542;-63
2024/01/09 05:11:35;;;;;;;5.63;5.13;;;19.90;56.30;;;;;;5054843;28;20542;-63
2024/01/09 05:14:03;;;;;;;4.90;4.50;;;19.90;56.20;;;;;;5051738;28;20469;-65
2024/01/09 05:16:31;;;;;;;5.03;4.63;;;20.00;56.00;;;;;;5046780;28;20474;-63
2024/01/09 05:18:59;;;;;;;5.47;4.97;;;20.00;55.90;;;;;;5042787;28;20447;-64
2024/01/09 05:21:28;;;;;;;5.10;4.70;;;20.00;55.60;;;;;;5050990;28;20533;-63
2024/01/09 05:23:57;;;;;;;5.30;4.90;;;20.00;55.50;;;;;;5054225;28;20517;-63
2024/01/09 05:26:25;;;;;;;5.53;5.00;;;20.10;55.30;;;;;;5051575;28;20456;-63
2024/01/09 05:28:54;;;;;;;5.23;4.67;;;20.10;55.20;;;;;;5053869;28;20464;-65
2024/01/09 05:31:23;;;;;;;4.70;4.30;;;20.10;55.10;;;;;;5053276;28;20447;-63
2024/01/09 05:33:53;;;;;;;5.53;5.03;;;20.10;54.90;;;;;;5052383;28;20450;-64
2024/01/09 05:36:23;;;;;;;5.80;5.30;;;20.20;54.80;;;;;;5054344;28;20454;-64
2024/01/09 05:38:52;;;;;;;5.37;4.87;;;20.20;54.70;;;;;;5050530;28;20469;-64
2024/01/09 05:41:22;;;;;;;4.83;4.43;;;20.20;54.60;;;;;;5048330;28;20460;-65
2024/01/09 05:43:51;;;;;;;5.60;4.57;;;20.20;54.50;;;;;;5049682;28;20479;-63
2024/01/09 05:46:19;;;;;;;4.93;4.50;;;20.30;54.40;;;;;;5044736;28;20448;-63
2024/01/09 05:48:48;;;;;;;6.00;5.30;;;20.30;54.20;;;;;;5075649;28;20459;-66
2024/01/09 05:51:17;;;;;;;4.90;4.50;;;20.30;54.30;;;;;;5048317;28;20943;-63
2024/01/09 05:53:47;;;;;;;5.00;4.47;;;20.40;54.50;;;;;;5038252;28;20479;-63
2024/01/09 05:56:18;;;;;;;5.33;4.83;;;20.40;54.60;;;;;;5040540;28;20467;-64
2024/01/09 05:58:48;;;;;;;5.47;4.90;;;20.40;54.70;;;;;;5049568;28;20460;-64
2024/01/09 06:01:17;;;;;;;5.67;5.10;;;20.40;54.90;;;;;;5046354;28;20482;-65
2024/01/09 06:03:45;;;;;;;7.40;4.67;;;20.50;55.00;;;;;;5049451;28;20943;-66
2024/01/09 06:06:13;;;;;;;4.70;4.20;;;20.60;55.20;;;;;;5045051;28;20461;-64
2024/01/09 06:08:42;;;;;;;4.67;4.27;;;20.60;55.20;;;;;;5055470;28;20457;-67
2024/01/09 06:11:10;;;;;;;12.63;5.40;;;20.60;55.30;;;;;;5053729;28;20776;-66
2024/01/09 06:13:38;;;;;;;5.17;4.77;;;20.70;55.30;;;;;;5052864;28;20447;-63
2024/01/09 06:16:08;;;;;;;5.73;5.17;;;20.70;55.30;;;;;;5044911;28;20509;-64
2024/01/09 06:18:37;;;;;;;5.47;5.07;;;20.70;55.20;;;;;;5045856;28;20860;-63
2024/01/09 06:21:06;;;;;;;6.43;5.17;;;20.70;55.20;;;;;;5046964;28;20547;-64
2024/01/09 06:23:34;;;;;;;4.77;4.37;;;20.70;55.20;;;;;;5049365;28;20452;-64
2024/01/09 06:26:02;;;;;;;5.97;5.37;;;20.80;55.20;;;;;;5050625;28;20538;-63
2024/01/09 06:28:31;;;;;;;5.23;4.73;;;20.80;55.30;;;;;;5039854;28;20502;-63
2024/01/09 06:30:59;;;;;;;5.20;4.23;;;20.80;55.30;;;;;;5053891;28;20467;-64
2024/01/09 06:33:29;;;;;;;5.30;4.80;;;20.80;55.30;;;;;;5049074;28;20436;-63
2024/01/09 06:35:57;;;;;;;7.00;6.10;;;20.80;55.20;;;;;;5052602;28;20498;-64
2024/01/09 06:38:25;;;;;;;8.20;5.70;;;20.80;55.00;;;;;;5045126;28;20474;-64
2024/01/09 06:40:53;;;;;;;5.57;5.07;;;20.80;54.90;;;;;;5038982;28;20444;-65
2024/01/09 06:43:22;;;;;;;5.37;4.87;;;20.80;54.90;;;;;;5045620;28;20540;-63
2024/01/09 06:45:50;;;;;;;4.97;4.57;;;20.80;54.90;;;;;;5046683;28;20466;-64
2024/01/09 06:48:18;;;;;;;7.23;4.90;;;20.80;54.90;;;;;;5048147;28;20445;-66
2024/01/09 06:50:48;;;;;;;4.70;4.30;;;20.80;54.90;;;;;;5060961;28;20451;-64
2024/01/09 06:53:16;;;;;;;5.00;4.50;;;20.80;54.90;;;;;;5063712;28;20993;-63
2024/01/09 06:55:45;;;;;;;8.07;5.57;;;20.80;54.90;;;;;;5054038;28;20456;-64
2024/01/09 06:58:16;;;;;;;6.23;4.93;;;20.80;54.90;;;;;;5053187;28;20476;-64
2024/01/09 07:00:44;;;;;;;6.40;5.90;;;20.80;55.00;;;;;;5040812;28;20475;-65
2024/01/09 07:03:13;;;;;;;5.80;5.30;;;20.80;55.00;;;;;;5047953;28;20483;-64
2024/01/09 07:05:41;;;;;;;6.93;5.63;;;20.80;55.00;;;;;;5057255;28;20535;-65
2024/01/09 07:08:11;;;;;;;5.93;5.33;;;20.80;55.00;;;;;;5038794;28;21111;-63
2024/01/09 07:10:40;;;;;;;5.60;5.03;;;20.80;55.00;;;;;;5045596;28;20451;-63
2024/01/09 07:13:08;;;;;;;5.70;5.17;;;20.80;54.90;;;;;;5064285;28;20513;-65
2024/01/09 07:15:36;;;;;;;6.13;5.50;;;20.80;54.60;;;;;;5050516;28;20456;-65
2024/01/09 07:18:05;;;;;;;6.80;6.17;;;20.80;54.50;;;;;;5044228;28;21364;-65
2024/01/09 07:20:34;;;;;;;5.47;4.97;;;20.80;54.40;;;;;;5056784;28;20793;-66
2024/01/09 07:23:02;;;;;;;5.87;5.03;;;20.80;54.20;;;;;;5062108;28;20519;-63
2024/01/09 07:25:45;;;;;;;6.20;5.40;;;20.80;54.20;;;;;;5058280;28;20439;-64
2024/01/09 07:28:13;;;;;;;6.00;5.10;;;20.80;54.20;;;;;;5057041;28;20467;-66
2024/01/09 07:30:41;;;;;;;6.97;5.47;;;20.80;54.20;;;;;;5044799;28;20806;-63
2024/01/09 07:33:10;;;;;;;6.30;5.80;;;20.80;54.20;;;;;;5063382;28;20466;-63
2024/01/09 07:35:38;;;;;;;6.00;5.50;;;20.80;54.20;;;;;;5064780;28;20447;-63
2024/01/09 07:38:07;;;;;;;6.50;5.83;;;20.80;54.20;;;;;;5062265;28;20522;-63
2024/01/09 07:40:35;;;;;;;6.57;5.87;;;20.80;54.20;;;;;;5047748;28;20471;-64
2024/01/09 07:43:05;;;;;;;6.83;6.13;;;20.90;54.20;;;;;;5055344;28;20681;-64
2024/01/09 07:45:33;;;;;;;6.57;5.60;;;20.90;54.20;;;;;;5044944;28;20473;-64
2024/01/09 07:48:03;;;;;;;6.27;5.67;;;20.90;54.20;;;;;;5047438;28;20461;-66
2024/01/09 07:50:31;;;;;;;6.37;5.77;;;20.90;54.20;;;;;;5044307;28;20468;-64
2024/01/09 07:53:00;;;;;;;6.43;5.83;;;20.90;54.20;;;;;;5046885;28;20547;-63
2024/01/09 07:55:32;;;;;;;6.63;5.50;;;21.00;54.10;;;;;;5043645;28;20461;-64
2024/01/09 07:58:00;;;;;;;6.60;5.80;;;20.90;54.00;;;;;;5045769;28;20490;-66
2024/01/09 08:00:32;;;;;;;5.93;5.30;;;20.90;54.00;;;;;;5045291;28;20954;-64
2024/01/09 08:03:03;;;;;;;6.10;5.47;;;20.90;54.00;;;;;;5053279;28;20464;-63
2024/01/09 08:05:32;;;;;;;6.07;5.20;;;20.90;54.00;;;;;;5050786;28;20815;-64
2024/01/09 08:08:01;;;;;;;5.50;5.00;;;20.90;54.00;;;;;;5051600;28;20519;-64
2024/01/09 08:10:29;;;;;;;5.70;5.17;;;20.90;54.00;;;;;;5045922;28;20457;-63
2024/01/09 08:12:58;;;;;;;6.53;5.80;;;20.90;54.00;;;;;;5050559;28;20567;-64
2024/01/09 08:15:26;;;;;;;6.23;5.47;;;20.90;53.90;;;;;;5048448;28;20471;-64
2024/01/09 08:17:56;;;;;;;7.23;5.53;;;20.90;53.90;;;;;;5044935;28;20466;-62
2024/01/09 08:20:25;;;;;;;5.40;4.90;;;20.90;53.90;;;;;;5047068;28;20468;-61
2024/01/09 08:22:53;;;;;;;7.43;6.03;;;20.90;53.90;;;;;;5047781;28;20957;-62
2024/01/09 08:25:21;;;;;;;6.20;5.60;;;20.90;53.40;;;;;;5050679;28;20559;-62
2024/01/09 08:27:48;;;;;;;6.07;5.47;;;20.90;53.90;;;;;;5048482;28;20453;-63
2024/01/09 08:30:17;;;;;;;6.70;5.73;;;20.90;53.70;;;;;;5046276;28;20483;-61
2024/01/09 08:32:45;;;;;;;6.60;5.90;;;20.90;53.70;;;;;;5039822;28;20463;-63
2024/01/09 08:35:15;;;;;;;6.00;5.47;;;20.90;53.70;;;;;;5057126;28;20469;-62
2024/01/09 08:37:44;;;;;;;6.40;5.67;;;21.00;53.70;;;;;;5057816;28;20461;-64
2024/01/09 08:40:12;;;;;;;6.27;5.77;;;21.00;53.70;;;;;;5062974;28;20478;-66
2024/01/09 08:42:41;;;;;;;7.20;6.20;;;21.00;53.80;;;;;;5046901;28;20460;-62
2024/01/09 08:45:09;;;;;;;6.80;6.10;;;21.00;53.80;;;;;;5087446;28;20438;-62
2024/01/09 08:47:38;;;;;;;5.47;5.07;;;20.90;53.90;;;;;;5041050;28;20480;-62
2024/01/09 08:50:07;;;;;;;7.07;6.37;;;21.00;53.80;;;;;;5044212;28;20489;-62
2024/01/09 08:52:37;;;;;;;6.53;5.10;;;21.00;53.70;;;;;;5055746;28;20444;-61
2024/01/09 08:55:06;;;;;;;6.80;5.37;;;21.00;53.70;;;;;;5048217;28;20442;-64
2024/01/09 08:57:35;;;;;;;5.30;4.80;;;21.00;53.70;;;;;;5049534;28;20482;-68
2024/01/09 09:00:05;;;;;;;6.73;6.07;;;21.00;53.80;;;;;;5045876;28;20513;-65
2024/01/09 09:02:34;;;;;;;6.93;6.17;;;21.00;54.00;;;;;;5045019;28;20496;-64
2024/01/09 09:05:02;;;;;;;7.07;6.03;;;21.00;54.00;;;;;;5049198;28;20563;-64
2024/01/09 09:07:31;;;;;;;5.20;4.80;;;21.10;54.10;;;;;;5044933;28;20524;-65
2024/01/09 09:10:01;;;;;;;7.43;5.80;;;21.10;54.10;;;;;;5046318;28;20448;-65
2024/01/09 09:12:31;;;;;;;6.97;5.80;;;21.20;54.00;;;;;;5043012;28;20516;-64
2024/01/09 09:15:00;;;;;;;6.60;5.90;;;21.20;53.90;;;;;;5043152;28;20469;-62
2024/01/09 09:17:28;;;;;;;6.60;4.93;;;21.30;53.90;;;;;;5042045;28;20548;-63
2024/01/09 09:19:56;;;;;;;5.90;5.40;;;21.30;53.80;;;;;;5045067;28;20475;-65
2024/01/09 09:22:25;;;;;;;5.50;5.00;;;21.30;53.80;;;;;;5047944;28;20462;-63
2024/01/09 09:24:54;;;;;;;5.90;5.40;;;21.40;54.10;;;;;;5047272;28;20453;-62
2024/01/09 09:27:23;;;;;;;7.10;6.10;;;21.40;54.20;;;;;;5048349;28;20947;-62
2024/01/09 09:29:53;;;;;;;11.47;6.80;;;21.40;54.30;;;;;;5043364;28;20819;-62
2024/01/09 09:32:21;;;;;;;9.60;6.70;;;21.40;54.40;;;;;;5043149;28;20480;-62
2024/01/09 09:34:50;;;;;;;10.90;6.57;;;21.40;54.50;;;;;;5039893;28;20527;-61
2024/01/09 09:37:20;;;;;;;9.33;7.10;;;21.40;54.50;;;;;;5047960;28;20582;-61
2024/01/09 09:39:48;;;;;;;7.23;6.30;;;21.40;54.60;;;;;;5044915;28;20557;-62
2024/01/09 09:42:16;;;;;;;11.90;6.87;;;21.40;54.60;;;;;;5045460;28;20449;-62
2024/01/09 09:44:51;;;;;;;12.13;7.20;;;21.40;54.60;;;;;;5046576;28;20458;-62
2024/01/09 09:47:21;;;;;;;7.80;6.63;;;21.40;54.60;;;;;;5046929;28;20940;-62
2024/01/09 09:49:52;;;;;;;12.63;7.30;;;21.40;54.50;;;;;;5037105;28;20454;-63
2024/01/09 09:52:22;;;;;;;7.40;6.33;;;21.40;54.50;;;;;;5046011;28;20465;-62
2024/01/09 09:54:51;;;;;;;8.53;6.70;;;21.50;54.50;;;;;;5046150;28;20960;-63
2024/01/09 09:57:20;;;;;;;8.07;6.37;;;21.50;54.50;;;;;;5059908;28;20456;-63
2024/01/09 09:59:51;;;;;;;7.33;6.47;;;21.50;54.50;;;;;;5046995;28;20470;-63
2024/01/09 10:02:25;;;;;;;10.33;5.90;;;21.50;54.50;;;;;;5047095;28;20466;-62
2024/01/09 10:04:56;;;;;;;8.10;6.40;;;21.50;54.40;;;;;;5047743;28;20489;-62
2024/01/09 10:07:25;;;;;;;6.83;5.80;;;21.50;54.40;;;;;;5047814;28;20546;-62
2024/01/09 10:09:55;;;;;;;10.07;6.77;;;21.50;54.40;;;;;;5044427;28;20464;-62
2024/01/09 10:12:24;;;;;;;6.23;5.33;;;21.60;54.40;;;;;;5041586;28;20458;-62
2024/01/09 10:15:07;;;;;;;9.63;5.70;;;21.60;54.30;;;;;;5047179;28;20460;-62
2024/01/09 10:17:36;;;;;;;9.60;5.90;;;21.60;54.40;;;;;;5042622;28;20458;-63
2024/01/09 10:20:08;;;;;;;7.33;6.13;;;21.60;54.30;;;;;;5076207;28;20469;-62
2024/01/09 10:22:38;;;;;;;6.03;5.30;;;21.60;54.10;;;;;;5046335;28;20477;-62
2024/01/09 10:25:08;;;;;;;6.93;5.73;;;21.70;54.00;;;;;;5047921;28;20461;-62
2024/01/09 10:27:37;;;;;;;6.70;5.67;;;21.70;53.90;;;;;;5049929;28;20962;-63
2024/01/09 10:30:08;;;;;;;8.83;5.83;;;21.70;53.80;;;;;;5048138;28;20471;-62
2024/01/09 10:32:39;;;;;;;6.43;5.87;;;21.70;53.80;;;;;;5053319;28;20892;-62
2024/01/09 10:35:13;;;;;;;6.37;5.50;;;21.80;53.70;;;;;;5061332;28;20993;-62
2024/01/09 10:37:43;;;;;;;6.20;5.60;;;21.80;53.60;;;;;;5048173;28;20512;-62
2024/01/09 10:40:13;;;;;;;5.77;5.27;;;21.90;53.60;;;;;;5056527;28;20466;-62
2024/01/09 10:42:47;;;;;;;6.53;5.60;;;21.90;53.40;;;;;;5037878;28;20474;-68
2024/01/09 10:45:19;;;;;;;8.37;5.50;;;22.00;53.40;;;;;;5046423;28;20449;-70
2024/01/09 10:47:52;;;;;;;6.63;5.97;;;22.10;53.40;;;;;;5042234;28;20856;-69
2024/01/09 10:50:21;;;;;;;5.87;5.20;;;22.20;53.30;;;;;;5035868;28;20797;-67
2024/01/09 10:52:50;;;;;;;6.30;5.70;;;22.40;53.10;;;;;;5042187;28;20548;-67
2024/01/09 10:55:21;;;;;;;6.33;5.80;;;22.50;53.00;;;;;;5044344;28;20455;-66
2024/01/09 10:57:50;;;;;;;7.57;6.00;;;22.60;52.90;;;;;;5050279;28;21053;-71
2024/01/09 11:00:20;;;;;;;7.40;5.80;;;22.70;52.50;;;;;;5085398;28;20505;-68
2024/01/09 11:02:48;;;;;;;6.93;5.47;;;22.80;52.40;;;;;;5051576;28;20976;-69
2024/01/09 11:05:17;;;;;;;6.67;5.97;;;22.90;52.30;;;;;;5043391;28;20461;-67
2024/01/09 11:07:50;;;;;;;6.83;5.50;;;23.00;52.20;;;;;;5045276;28;20579;-68
2024/01/09 11:10:21;;;;;;;6.83;6.13;;;23.10;52.00;;;;;;5045281;28;20566;-67
2024/01/09 11:12:53;;;;;;;6.10;5.50;;;23.10;51.90;;;;;;5043262;28;20501;-68
2024/01/09 11:15:27;;;;;;;6.40;5.80;;;23.20;51.80;;;;;;5050188;28;20454;-70
2024/01/09 11:18:02;;;;;;;7.60;6.90;;;23.20;51.70;;;;;;5043112;28;20460;-70
2024/01/09 11:20:31;;;;;;;6.63;6.00;;;23.30;51.40;;;;;;5045107;28;20477;-69
2024/01/09 11:22:59;;;;;;;9.00;6.50;;;23.30;51.00;;;;;;5048395;28;20447;-68
2024/01/09 11:25:29;;;;;;;7.10;6.20;;;23.40;50.90;;;;;;5053684;28;20899;-68
2024/01/09 11:27:58;;;;;;;6.63;6.00;;;23.40;50.80;;;;;;5039674;28;20454;-68
2024/01/09 11:30:31;;;;;;;6.60;5.73;;;23.40;50.70;;;;;;5067493;28;20446;-68
2024/01/09 11:33:41;;;;;;;8.10;6.10;;;23.40;50.80;;;;;;5049448;28;21135;-68
2024/01/09 11:36:11;;;;;;;7.73;7.00;;;23.40;50.70;;;;;;5044141;28;20458;-70
2024/01/09 11:38:40;;;;;;;9.07;6.43;;;23.40;50.80;;;;;;5052585;28;20903;-70
2024/01/09 11:41:10;;;;;;;7.00;6.30;;;23.40;50.80;;;;;;5052495;28;20461;-68
2024/01/09 11:44:00;;;;;;;6.27;5.67;;;23.40;50.80;;;;;;5052730;28;21144;-68
2024/01/09 11:46:33;;;;;;;7.10;6.50;;;23.40;50.80;;;;;;5046541;28;21004;-68
2024/01/09 11:49:02;;;;;;;6.80;6.20;;;23.40;50.80;;;;;;5051510;28;20451;-68
2024/01/09 11:51:33;;;;;;;6.30;4.93;;;23.40;50.80;;;;;;5045062;28;20459;-70
2024/01/09 11:54:02;;;;;;;6.83;6.23;;;23.50;50.70;;;;;;5051816;28;20991;-68
2024/01/09 11:56:31;;;;;;;6.57;6.07;;;23.50;50.70;;;;;;5050594;28;20469;-69
2024/01/09 11:59:00;;;;;;;6.50;5.90;;;23.50;50.70;;;;;;5047286;28;20467;-68
2024/01/09 12:01:30;;;;;;;7.83;7.03;;;23.50;50.60;;;;;;5050207;28;20962;-68
2024/01/09 12:03:59;;;;;;;6.20;5.70;;;23.60;50.60;;;;;;5041434;28;20473;-67
2024/01/09 12:06:30;;;;;;;7.13;6.43;;;23.60;50.60;;;;;;5051353;28;20491;-65
2024/01/09 12:08:59;;;;;;;6.63;6.00;;;23.60;50.60;;;;;;5052454;28;20461;-69
2024/01/09 12:11:28;;;;;;;6.87;6.17;;;23.60;50.50;;;;;;5048065;28;20551;-65
2024/01/09 12:14:00;;;;;;;7.13;5.47;;;23.60;50.40;;;;;;5049726;28;20638;-66
2024/01/09 12:16:31;;;;;;;7.23;6.03;;;23.70;50.40;;;;;;5050432;28;20955;-66
2024/01/09 12:19:00;;;;;;;7.83;5.20;;;23.70;50.30;;;;;;5051133;28;20978;-66
2024/01/09 12:21:31;;;;;;;6.47;5.87;;;23.70;50.20;;;;;;5045698;28;20537;-68
2024/01/09 12:24:02;;;;;;;6.17;5.60;;;23.70;50.20;;;;;;5049991;28;20550;-69
2024/01/09 12:26:51;;;;;;;6.87;6.20;;;23.70;50.20;;;;;;5058187;28;20508;-66
2024/01/09 12:29:20;;;;;;;7.90;5.43;;;23.70;50.10;;;;;;5049041;28;20824;-65
2024/01/09 12:31:50;;;;;;;5.47;4.90;;;23.60;50.10;;;;;;5055119;28;20503;-68
2024/01/09 12:34:18;;;;;;;6.23;5.70;;;23.60;50.10;;;;;;5051328;28;20449;-65
2024/01/09 12:36:47;;;;;;;5.73;5.13;;;23.60;50.20;;;;;;5056295;28;20521;-66
2024/01/09 12:39:19;;;;;;;7.30;6.33;;;23.60;50.20;;;;;;5056674;28;20451;-66
2024/01/09 12:41:48;;;;;;;5.53;5.03;;;23.60;50.20;;;;;;5054022;28;20470;-65
2024/01/09 12:44:16;;;;;;;6.30;5.70;;;23.60;50.20;;;;;;5054677;28;20449;-67
2024/01/09 12:46:45;;;;;;;6.40;5.80;;;23.60;50.20;;;;;;5051440;28;20551;-67
2024/01/09 12:49:15;;;;;;;8.03;7.23;;;23.60;50.20;;;;;;5051979;28;20522;-66
2024/01/09 12:51:43;;;;;;;8.00;6.33;;;23.60;50.10;;;;;;5053768;28;20464;-65
2024/01/09 12:54:18;;;;;;;6.63;5.93;;;23.60;50.10;;;;;;5056642;28;21074;-67
2024/01/09 12:56:46;;;;;;;6.80;6.10;;;23.60;50.10;;;;;;5057698;28;20465;-68